Terminal Aerodrome Forecast
Issued by NWS Blacksburg, VA

Current Version | Previous Version | Text Only | Print | Product List | Glossary Off
Versions: 1 2 3 4 5 6 7 8 9 10 11 12 13 14 15 16 17 18 19 20 21 22 23 24 25 26 27 28 29 30 31 32 33

000
FTUS41 KRNK 161723
TAFBLF
TAF
KBLF 161723Z 1618/1718 24012G22KT P6SM SCT015 BKN035
     FM162000 26009G18KT P6SM OVC025
     FM170000 27011KT P6SM OVC015
     FM170300 28008KT 6SM BR OVC007
     FM171200 29013G20KT P6SM SCT012 OVC025=

USA.gov is the U.S. government's official web portal to all federal, state and local government web resources and services.